sensor_id;sensor_type;location;lat;lon;timestamp;P1;durP1;ratioP1;P2;durP2;ratioP2
38208;SDS011;24016;52.102;11.584;2022-08-21T00:00:46;5.63;;;1.80;;
38208;SDS011;24016;52.102;11.584;2022-08-21T00:03:12;5.07;;;2.10;;
38208;SDS011;24016;52.102;11.584;2022-08-21T00:05:39;4.90;;;2.00;;
38208;SDS011;24016;52.102;11.584;2022-08-21T00:08:08;4.18;;;1.80;;
38208;SDS011;24016;52.102;11.584;2022-08-21T00:10:34;5.95;;;1.92;;
38208;SDS011;24016;52.102;11.584;2022-08-21T00:13:00;5.55;;;2.05;;
38208;SDS011;24016;52.102;11.584;2022-08-21T00:15:28;6.13;;;2.20;;
38208;SDS011;24016;52.102;11.584;2022-08-21T00:17:55;5.35;;;1.90;;
38208;SDS011;24016;52.102;11.584;2022-08-21T00:20:22;4.72;;;1.80;;
38208;SDS011;24016;52.102;11.584;2022-08-21T00:22:48;6.07;;;2.15;;
38208;SDS011;24016;52.102;11.584;2022-08-21T00:25:14;8.55;;;2.08;;
38208;SDS011;24016;52.102;11.584;2022-08-21T00:27:40;6.43;;;1.90;;
38208;SDS011;24016;52.102;11.584;2022-08-21T00:30:07;4.53;;;1.98;;
38208;SDS011;24016;52.102;11.584;2022-08-21T00:32:33;5.00;;;1.98;;
38208;SDS011;24016;52.102;11.584;2022-08-21T00:35:01;5.20;;;1.75;;
38208;SDS011;24016;52.102;11.584;2022-08-21T00:37:27;4.70;;;1.98;;
38208;SDS011;24016;52.102;11.584;2022-08-21T00:39:53;5.30;;;1.83;;
38208;SDS011;24016;52.102;11.584;2022-08-21T00:42:18;4.40;;;1.80;;
38208;SDS011;24016;52.102;11.584;2022-08-21T00:44:45;4.60;;;1.77;;
38208;SDS011;24016;52.102;11.584;2022-08-21T00:47:12;9.02;;;1.70;;
38208;SDS011;24016;52.102;11.584;2022-08-21T00:49:39;5.85;;;2.00;;
38208;SDS011;24016;52.102;11.584;2022-08-21T00:52:05;6.32;;;2.00;;
38208;SDS011;24016;52.102;11.584;2022-08-21T00:54:33;6.60;;;1.90;;
38208;SDS011;24016;52.102;11.584;2022-08-21T00:57:01;4.15;;;1.75;;
38208;SDS011;24016;52.102;11.584;2022-08-21T00:59:33;4.78;;;2.08;;
38208;SDS011;24016;52.102;11.584;2022-08-21T01:02:01;5.50;;;2.20;;
38208;SDS011;24016;52.102;11.584;2022-08-21T01:04:28;4.65;;;2.00;;
38208;SDS011;24016;52.102;11.584;2022-08-21T01:06:54;4.20;;;2.10;;
38208;SDS011;24016;52.102;11.584;2022-08-21T01:09:19;4.90;;;1.95;;
38208;SDS011;24016;52.102;11.584;2022-08-21T01:11:45;5.43;;;2.10;;
38208;SDS011;24016;52.102;11.584;2022-08-21T01:14:11;4.28;;;2.20;;
38208;SDS011;24016;52.102;11.584;2022-08-21T01:16:39;4.13;;;2.17;;
38208;SDS011;24016;52.102;11.584;2022-08-21T01:19:08;4.07;;;2.10;;
38208;SDS011;24016;52.102;11.584;2022-08-21T01:21:34;7.68;;;2.30;;
38208;SDS011;24016;52.102;11.584;2022-08-21T01:23:59;6.82;;;2.63;;
38208;SDS011;24016;52.102;11.584;2022-08-21T01:26:27;6.07;;;2.10;;
38208;SDS011;24016;52.102;11.584;2022-08-21T01:28:57;3.92;;;2.40;;
38208;SDS011;24016;52.102;11.584;2022-08-21T01:31:26;6.03;;;2.15;;
38208;SDS011;24016;52.102;11.584;2022-08-21T01:36:28;5.55;;;2.72;;
38208;SDS011;24016;52.102;11.584;2022-08-21T01:38:54;5.32;;;2.22;;
38208;SDS011;24016;52.102;11.584;2022-08-21T01:41:20;7.20;;;2.50;;
38208;SDS011;24016;52.102;11.584;2022-08-21T01:43:46;4.78;;;2.05;;
38208;SDS011;24016;52.102;11.584;2022-08-21T01:46:12;8.48;;;2.20;;
38208;SDS011;24016;52.102;11.584;2022-08-21T01:48:39;5.47;;;2.13;;
38208;SDS011;24016;52.102;11.584;2022-08-21T01:51:05;4.82;;;2.30;;
38208;SDS011;24016;52.102;11.584;2022-08-21T01:53:32;6.72;;;2.30;;
38208;SDS011;24016;52.102;11.584;2022-08-21T01:56:01;4.80;;;2.28;;
38208;SDS011;24016;52.102;11.584;2022-08-21T01:58:28;4.53;;;2.20;;
38208;SDS011;24016;52.102;11.584;2022-08-21T02:00:53;4.75;;;1.90;;
38208;SDS011;24016;52.102;11.584;2022-08-21T02:03:19;9.35;;;2.33;;
38208;SDS011;24016;52.102;11.584;2022-08-21T02:05:45;3.20;;;2.03;;
38208;SDS011;24016;52.102;11.584;2022-08-21T02:08:10;5.80;;;2.10;;
38208;SDS011;24016;52.102;11.584;2022-08-21T02:10:36;5.05;;;1.90;;
38208;SDS011;24016;52.102;11.584;2022-08-21T02:13:02;6.05;;;2.05;;
38208;SDS011;24016;52.102;11.584;2022-08-21T02:15:28;5.03;;;1.90;;
38208;SDS011;24016;52.102;11.584;2022-08-21T02:17:55;6.28;;;2.38;;
38208;SDS011;24016;52.102;11.584;2022-08-21T02:20:42;5.53;;;2.05;;
38208;SDS011;24016;52.102;11.584;2022-08-21T02:23:10;4.00;;;1.95;;
38208;SDS011;24016;52.102;11.584;2022-08-21T02:25:36;6.18;;;2.00;;
38208;SDS011;24016;52.102;11.584;2022-08-21T02:28:07;2.67;;;1.55;;
38208;SDS011;24016;52.102;11.584;2022-08-21T02:30:36;3.92;;;2.03;;
38208;SDS011;24016;52.102;11.584;2022-08-21T02:33:06;4.07;;;1.58;;
38208;SDS011;24016;52.102;11.584;2022-08-21T02:35:32;4.05;;;1.58;;
38208;SDS011;24016;52.102;11.584;2022-08-21T02:37:59;8.13;;;2.05;;
38208;SDS011;24016;52.102;11.584;2022-08-21T02:40:28;4.57;;;1.90;;
38208;SDS011;24016;52.102;11.584;2022-08-21T02:42:58;3.83;;;1.67;;
38208;SDS011;24016;52.102;11.584;2022-08-21T02:45:24;5.35;;;2.05;;
38208;SDS011;24016;52.102;11.584;2022-08-21T02:47:51;4.15;;;1.60;;
38208;SDS011;24016;52.102;11.584;2022-08-21T02:50:26;4.88;;;1.70;;
38208;SDS011;24016;52.102;11.584;2022-08-21T02:52:53;6.53;;;2.33;;
38208;SDS011;24016;52.102;11.584;2022-08-21T02:55:20;6.13;;;2.00;;
38208;SDS011;24016;52.102;11.584;2022-08-21T02:57:51;4.90;;;2.10;;
38208;SDS011;24016;52.102;11.584;2022-08-21T03:00:18;6.47;;;2.10;;
38208;SDS011;24016;52.102;11.584;2022-08-21T03:02:46;4.95;;;1.85;;
38208;SDS011;24016;52.102;11.584;2022-08-21T03:05:12;7.13;;;1.75;;
38208;SDS011;24016;52.102;11.584;2022-08-21T03:07:40;4.82;;;1.95;;
38208;SDS011;24016;52.102;11.584;2022-08-21T03:10:07;5.97;;;2.00;;
38208;SDS011;24016;52.102;11.584;2022-08-21T03:12:33;5.30;;;1.85;;
38208;SDS011;24016;52.102;11.584;2022-08-21T03:15:00;4.97;;;2.00;;
38208;SDS011;24016;52.102;11.584;2022-08-21T03:17:27;5.80;;;2.20;;
38208;SDS011;24016;52.102;11.584;2022-08-21T03:19:53;7.97;;;2.35;;
38208;SDS011;24016;52.102;11.584;2022-08-21T03:22:18;9.02;;;2.53;;
38208;SDS011;24016;52.102;11.584;2022-08-21T03:24:44;5.93;;;1.85;;
38208;SDS011;24016;52.102;11.584;2022-08-21T03:27:10;4.97;;;2.03;;
38208;SDS011;24016;52.102;11.584;2022-08-21T03:29:37;9.43;;;2.28;;
38208;SDS011;24016;52.102;11.584;2022-08-21T03:32:03;3.88;;;1.95;;
38208;SDS011;24016;52.102;11.584;2022-08-21T03:34:29;6.97;;;2.42;;
38208;SDS011;24016;52.102;11.584;2022-08-21T03:36:54;4.35;;;1.88;;
38208;SDS011;24016;52.102;11.584;2022-08-21T03:39:20;6.53;;;2.20;;
38208;SDS011;24016;52.102;11.584;2022-08-21T03:41:45;4.55;;;2.33;;
38208;SDS011;24016;52.102;11.584;2022-08-21T03:44:12;5.47;;;2.33;;
38208;SDS011;24016;52.102;11.584;2022-08-21T03:46:38;10.88;;;2.20;;
38208;SDS011;24016;52.102;11.584;2022-08-21T03:49:04;6.60;;;2.25;;
38208;SDS011;24016;52.102;11.584;2022-08-21T03:51:30;8.65;;;2.45;;
38208;SDS011;24016;52.102;11.584;2022-08-21T03:53:58;7.97;;;2.28;;
38208;SDS011;24016;52.102;11.584;2022-08-21T03:56:24;6.22;;;2.28;;
38208;SDS011;24016;52.102;11.584;2022-08-21T03:58:49;14.05;;;2.45;;
38208;SDS011;24016;52.102;11.584;2022-08-21T04:01:15;5.93;;;2.50;;
38208;SDS011;24016;52.102;11.584;2022-08-21T04:03:40;4.82;;;2.22;;
38208;SDS011;24016;52.102;11.584;2022-08-21T04:06:06;8.65;;;2.40;;
38208;SDS011;24016;52.102;11.584;2022-08-21T04:08:32;8.23;;;2.40;;
38208;SDS011;24016;52.102;11.584;2022-08-21T04:10:58;6.75;;;2.45;;
38208;SDS011;24016;52.102;11.584;2022-08-21T04:13:25;6.70;;;2.50;;
38208;SDS011;24016;52.102;11.584;2022-08-21T04:15:53;7.07;;;2.85;;
38208;SDS011;24016;52.102;11.584;2022-08-21T04:18:19;6.95;;;2.70;;
38208;SDS011;24016;52.102;11.584;2022-08-21T04:20:46;6.57;;;2.50;;
38208;SDS011;24016;52.102;11.584;2022-08-21T04:23:14;6.22;;;2.72;;
38208;SDS011;24016;52.102;11.584;2022-08-21T04:25:40;7.82;;;2.88;;
38208;SDS011;24016;52.102;11.584;2022-08-21T04:28:05;7.13;;;2.85;;
38208;SDS011;24016;52.102;11.584;2022-08-21T04:30:31;5.65;;;2.45;;
38208;SDS011;24016;52.102;11.584;2022-08-21T04:32:57;7.78;;;3.00;;
38208;SDS011;24016;52.102;11.584;2022-08-21T04:35:23;4.57;;;2.33;;
38208;SDS011;24016;52.102;11.584;2022-08-21T04:37:49;4.00;;;2.08;;
38208;SDS011;24016;52.102;11.584;2022-08-21T04:40:16;5.07;;;2.17;;
38208;SDS011;24016;52.102;11.584;2022-08-21T04:42:44;6.35;;;2.50;;
38208;SDS011;24016;52.102;11.584;2022-08-21T04:45:16;7.07;;;2.83;;
38208;SDS011;24016;52.102;11.584;2022-08-21T04:48:02;5.38;;;2.42;;
38208;SDS011;24016;52.102;11.584;2022-08-21T04:50:37;4.47;;;2.42;;
38208;SDS011;24016;52.102;11.584;2022-08-21T04:53:06;5.90;;;2.33;;
38208;SDS011;24016;52.102;11.584;2022-08-21T04:55:35;6.70;;;2.50;;
38208;SDS011;24016;52.102;11.584;2022-08-21T04:58:02;7.20;;;2.80;;
38208;SDS011;24016;52.102;11.584;2022-08-21T05:00:29;6.20;;;2.40;;
38208;SDS011;24016;52.102;11.584;2022-08-21T05:02:55;8.90;;;2.78;;
38208;SDS011;24016;52.102;11.584;2022-08-21T05:05:24;7.18;;;2.67;;
38208;SDS011;24016;52.102;11.584;2022-08-21T05:07:50;7.45;;;2.47;;
38208;SDS011;24016;52.102;11.584;2022-08-21T05:10:18;6.70;;;2.40;;
38208;SDS011;24016;52.102;11.584;2022-08-21T05:12:44;7.00;;;2.50;;
38208;SDS011;24016;52.102;11.584;2022-08-21T05:15:10;5.07;;;2.28;;
38208;SDS011;24016;52.102;11.584;2022-08-21T05:17:37;4.75;;;2.40;;
38208;SDS011;24016;52.102;11.584;2022-08-21T05:20:04;7.20;;;3.10;;
38208;SDS011;24016;52.102;11.584;2022-08-21T05:22:29;6.15;;;2.40;;
38208;SDS011;24016;52.102;11.584;2022-08-21T05:24:56;5.45;;;2.33;;
38208;SDS011;24016;52.102;11.584;2022-08-21T05:27:22;8.82;;;2.60;;
38208;SDS011;24016;52.102;11.584;2022-08-21T05:29:48;5.68;;;2.40;;
38208;SDS011;24016;52.102;11.584;2022-08-21T05:32:13;5.28;;;2.33;;
38208;SDS011;24016;52.102;11.584;2022-08-21T05:34:39;4.72;;;2.03;;
38208;SDS011;24016;52.102;11.584;2022-08-21T05:37:05;6.28;;;2.40;;
38208;SDS011;24016;52.102;11.584;2022-08-21T05:39:31;3.90;;;2.00;;
38208;SDS011;24016;52.102;11.584;2022-08-21T05:41:57;6.35;;;2.45;;
38208;SDS011;24016;52.102;11.584;2022-08-21T05:44:22;7.88;;;2.13;;
38208;SDS011;24016;52.102;11.584;2022-08-21T05:46:48;6.75;;;2.17;;
38208;SDS011;24016;52.102;11.584;2022-08-21T05:49:13;4.63;;;1.88;;
38208;SDS011;24016;52.102;11.584;2022-08-21T05:51:40;6.35;;;2.53;;
38208;SDS011;24016;52.102;11.584;2022-08-21T05:54:05;11.32;;;2.50;;
38208;SDS011;24016;52.102;11.584;2022-08-21T05:56:31;6.00;;;2.10;;
38208;SDS011;24016;52.102;11.584;2022-08-21T05:58:58;5.95;;;2.40;;
38208;SDS011;24016;52.102;11.584;2022-08-21T06:01:23;4.75;;;2.25;;
38208;SDS011;24016;52.102;11.584;2022-08-21T06:03:49;5.43;;;1.98;;
38208;SDS011;24016;52.102;11.584;2022-08-21T06:06:14;5.07;;;2.00;;
38208;SDS011;24016;52.102;11.584;2022-08-21T06:08:40;7.25;;;2.17;;
38208;SDS011;24016;52.102;11.584;2022-08-21T06:11:07;6.72;;;2.20;;
38208;SDS011;24016;52.102;11.584;2022-08-21T06:13:32;4.53;;;1.80;;
38208;SDS011;24016;52.102;11.584;2022-08-21T06:16:08;4.18;;;2.10;;
38208;SDS011;24016;52.102;11.584;2022-08-21T06:18:36;5.88;;;1.83;;
38208;SDS011;24016;52.102;11.584;2022-08-21T06:21:02;5.18;;;1.95;;
38208;SDS011;24016;52.102;11.584;2022-08-21T06:23:28;4.88;;;2.00;;
38208;SDS011;24016;52.102;11.584;2022-08-21T06:25:54;4.38;;;1.92;;
38208;SDS011;24016;52.102;11.584;2022-08-21T06:28:19;4.30;;;1.83;;
38208;SDS011;24016;52.102;11.584;2022-08-21T06:30:45;5.55;;;2.20;;
38208;SDS011;24016;52.102;11.584;2022-08-21T06:33:11;4.75;;;1.75;;
38208;SDS011;24016;52.102;11.584;2022-08-21T06:35:37;6.70;;;2.28;;
38208;SDS011;24016;52.102;11.584;2022-08-21T06:38:02;3.88;;;1.77;;
38208;SDS011;24016;52.102;11.584;2022-08-21T06:40:28;8.20;;;2.15;;
38208;SDS011;24016;52.102;11.584;2022-08-21T06:42:55;5.68;;;1.70;;
38208;SDS011;24016;52.102;11.584;2022-08-21T06:45:21;4.20;;;1.60;;
38208;SDS011;24016;52.102;11.584;2022-08-21T06:47:47;5.88;;;1.90;;
38208;SDS011;24016;52.102;11.584;2022-08-21T06:50:13;5.25;;;1.45;;
38208;SDS011;24016;52.102;11.584;2022-08-21T06:52:38;6.35;;;1.50;;
38208;SDS011;24016;52.102;11.584;2022-08-21T06:55:05;4.47;;;1.60;;
38208;SDS011;24016;52.102;11.584;2022-08-21T06:57:32;3.55;;;1.35;;
38208;SDS011;24016;52.102;11.584;2022-08-21T06:59:58;4.32;;;1.48;;
38208;SDS011;24016;52.102;11.584;2022-08-21T07:02:24;5.90;;;1.70;;
38208;SDS011;24016;52.102;11.584;2022-08-21T07:04:49;5.10;;;1.25;;
38208;SDS011;24016;52.102;11.584;2022-08-21T07:07:15;4.35;;;1.45;;
38208;SDS011;24016;52.102;11.584;2022-08-21T07:09:41;3.67;;;1.38;;
38208;SDS011;24016;52.102;11.584;2022-08-21T07:12:07;3.92;;;1.55;;
38208;SDS011;24016;52.102;11.584;2022-08-21T07:14:33;4.85;;;1.65;;
38208;SDS011;24016;52.102;11.584;2022-08-21T07:16:59;3.72;;;1.40;;
38208;SDS011;24016;52.102;11.584;2022-08-21T07:19:25;4.80;;;1.50;;
38208;SDS011;24016;52.102;11.584;2022-08-21T07:21:51;4.75;;;1.63;;
38208;SDS011;24016;52.102;11.584;2022-08-21T07:24:19;5.97;;;1.70;;
38208;SDS011;24016;52.102;11.584;2022-08-21T07:26:45;4.93;;;1.70;;
38208;SDS011;24016;52.102;11.584;2022-08-21T07:29:10;2.38;;;1.40;;
38208;SDS011;24016;52.102;11.584;2022-08-21T07:31:36;2.90;;;1.30;;
38208;SDS011;24016;52.102;11.584;2022-08-21T07:34:02;4.28;;;1.40;;
38208;SDS011;24016;52.102;11.584;2022-08-21T07:36:27;2.42;;;1.13;;
38208;SDS011;24016;52.102;11.584;2022-08-21T07:38:53;3.33;;;1.25;;
38208;SDS011;24016;52.102;11.584;2022-08-21T07:41:21;5.15;;;1.58;;
38208;SDS011;24016;52.102;11.584;2022-08-21T07:43:50;5.25;;;1.55;;
38208;SDS011;24016;52.102;11.584;2022-08-21T07:46:15;6.63;;;2.17;;
38208;SDS011;24016;52.102;11.584;2022-08-21T07:48:41;4.47;;;1.50;;
38208;SDS011;24016;52.102;11.584;2022-08-21T07:51:08;5.03;;;1.65;;
38208;SDS011;24016;52.102;11.584;2022-08-21T07:53:36;7.18;;;1.50;;
38208;SDS011;24016;52.102;11.584;2022-08-21T07:56:02;4.70;;;1.40;;
38208;SDS011;24016;52.102;11.584;2022-08-21T07:58:29;4.22;;;1.30;;
38208;SDS011;24016;52.102;11.584;2022-08-21T08:00:55;4.63;;;1.45;;
38208;SDS011;24016;52.102;11.584;2022-08-21T08:03:21;6.30;;;1.85;;
38208;SDS011;24016;52.102;11.584;2022-08-21T08:05:46;7.25;;;1.73;;
38208;SDS011;24016;52.102;11.584;2022-08-21T08:08:12;6.25;;;1.75;;
38208;SDS011;24016;52.102;11.584;2022-08-21T08:10:38;7.55;;;1.38;;
38208;SDS011;24016;52.102;11.584;2022-08-21T08:13:04;6.38;;;1.58;;
38208;SDS011;24016;52.102;11.584;2022-08-21T08:15:30;4.18;;;1.45;;
38208;SDS011;24016;52.102;11.584;2022-08-21T08:17:56;4.88;;;1.58;;
38208;SDS011;24016;52.102;11.584;2022-08-21T08:20:22;3.53;;;1.40;;
38208;SDS011;24016;52.102;11.584;2022-08-21T08:22:50;5.55;;;1.90;;
38208;SDS011;24016;52.102;11.584;2022-08-21T08:25:16;5.38;;;1.70;;
38208;SDS011;24016;52.102;11.584;2022-08-21T08:27:44;3.55;;;1.70;;
38208;SDS011;24016;52.102;11.584;2022-08-21T08:30:11;4.45;;;1.60;;
38208;SDS011;24016;52.102;11.584;2022-08-21T08:32:37;4.03;;;1.50;;
38208;SDS011;24016;52.102;11.584;2022-08-21T08:35:04;5.18;;;1.70;;
38208;SDS011;24016;52.102;11.584;2022-08-21T08:37:31;6.93;;;1.95;;
38208;SDS011;24016;52.102;11.584;2022-08-21T08:39:57;3.92;;;1.60;;
38208;SDS011;24016;52.102;11.584;2022-08-21T08:42:25;4.93;;;1.75;;
38208;SDS011;24016;52.102;11.584;2022-08-21T08:44:59;5.82;;;1.50;;
38208;SDS011;24016;52.102;11.584;2022-08-21T08:47:34;3.78;;;1.58;;
38208;SDS011;24016;52.102;11.584;2022-08-21T08:52:46;7.55;;;1.70;;
38208;SDS011;24016;52.102;11.584;2022-08-21T08:57:44;6.88;;;1.70;;
38208;SDS011;24016;52.102;11.584;2022-08-21T09:00:12;4.13;;;1.60;;
38208;SDS011;24016;52.102;11.584;2022-08-21T09:02:40;5.05;;;1.90;;
38208;SDS011;24016;52.102;11.584;2022-08-21T09:05:09;5.97;;;1.88;;
38208;SDS011;24016;52.102;11.584;2022-08-21T09:19:18;4.70;;;1.52;;
38208;SDS011;24016;52.102;11.584;2022-08-21T09:22:15;4.20;;;1.50;;
38208;SDS011;24016;52.102;11.584;2022-08-21T09:27:35;4.72;;;1.48;;
38208;SDS011;24016;52.102;11.584;2022-08-21T09:30:05;2.88;;;1.20;;
38208;SDS011;24016;52.102;11.584;2022-08-21T09:32:32;5.55;;;1.88;;
38208;SDS011;24016;52.102;11.584;2022-08-21T09:40:33;5.33;;;1.60;;
38208;SDS011;24016;52.102;11.584;2022-08-21T09:43:20;7.85;;;1.70;;
38208;SDS011;24016;52.102;11.584;2022-08-21T09:48:54;6.47;;;1.70;;
38208;SDS011;24016;52.102;11.584;2022-08-21T09:51:25;5.00;;;1.40;;
38208;SDS011;24016;52.102;11.584;2022-08-21T09:56:36;5.78;;;1.58;;
38208;SDS011;24016;52.102;11.584;2022-08-21T09:59:33;6.07;;;1.85;;
38208;SDS011;24016;52.102;11.584;2022-08-21T10:02:00;4.97;;;1.85;;
38208;SDS011;24016;52.102;11.584;2022-08-21T10:04:29;5.57;;;1.70;;
38208;SDS011;24016;52.102;11.584;2022-08-21T10:09:35;5.75;;;1.65;;
38208;SDS011;24016;52.102;11.584;2022-08-21T10:12:13;5.00;;;1.50;;
38208;SDS011;24016;52.102;11.584;2022-08-21T10:17:43;7.20;;;2.17;;
38208;SDS011;24016;52.102;11.584;2022-08-21T10:20:11;6.82;;;1.83;;
38208;SDS011;24016;52.102;11.584;2022-08-21T10:22:47;4.05;;;1.42;;
38208;SDS011;24016;52.102;11.584;2022-08-21T10:25:31;6.85;;;2.00;;
38208;SDS011;24016;52.102;11.584;2022-08-21T10:28:31;5.90;;;1.75;;
38208;SDS011;24016;52.102;11.584;2022-08-21T10:33:44;5.85;;;1.90;;
38208;SDS011;24016;52.102;11.584;2022-08-21T10:36:20;6.85;;;1.80;;
38208;SDS011;24016;52.102;11.584;2022-08-21T10:41:54;4.35;;;1.73;;
38208;SDS011;24016;52.102;11.584;2022-08-21T10:44:49;7.70;;;1.92;;
38208;SDS011;24016;52.102;11.584;2022-08-21T10:47:47;6.95;;;2.00;;
38208;SDS011;24016;52.102;11.584;2022-08-21T10:50:21;4.57;;;1.80;;
38208;SDS011;24016;52.102;11.584;2022-08-21T10:55:56;5.07;;;2.03;;
38208;SDS011;24016;52.102;11.584;2022-08-21T10:58:30;6.55;;;1.90;;
38208;SDS011;24016;52.102;11.584;2022-08-21T11:01:10;6.70;;;2.00;;
38208;SDS011;24016;52.102;11.584;2022-08-21T11:03:39;5.97;;;1.90;;
38208;SDS011;24016;52.102;11.584;2022-08-21T11:06:11;4.93;;;1.73;;
38208;SDS011;24016;52.102;11.584;2022-08-21T11:08:49;3.13;;;1.40;;
38208;SDS011;24016;52.102;11.584;2022-08-21T11:11:26;7.10;;;2.30;;
38208;SDS011;24016;52.102;11.584;2022-08-21T11:13:58;6.10;;;2.03;;
38208;SDS011;24016;52.102;11.584;2022-08-21T11:16:37;5.20;;;1.98;;
38208;SDS011;24016;52.102;11.584;2022-08-21T11:22:06;4.57;;;1.40;;
38208;SDS011;24016;52.102;11.584;2022-08-21T11:24:40;5.15;;;1.60;;
38208;SDS011;24016;52.102;11.584;2022-08-21T11:27:21;4.97;;;1.80;;
38208;SDS011;24016;52.102;11.584;2022-08-21T11:29:58;4.25;;;1.67;;
38208;SDS011;24016;52.102;11.584;2022-08-21T11:35:31;4.85;;;1.73;;
38208;SDS011;24016;52.102;11.584;2022-08-21T11:40:52;5.03;;;1.70;;
38208;SDS011;24016;52.102;11.584;2022-08-21T11:43:39;3.78;;;1.58;;
38208;SDS011;24016;52.102;11.584;2022-08-21T11:48:53;6.40;;;2.03;;
38208;SDS011;24016;52.102;11.584;2022-08-21T11:51:28;4.28;;;1.75;;
38208;SDS011;24016;52.102;11.584;2022-08-21T11:56:45;5.43;;;1.90;;
38208;SDS011;24016;52.102;11.584;2022-08-21T11:59:23;5.82;;;2.10;;
38208;SDS011;24016;52.102;11.584;2022-08-21T12:01:57;3.63;;;1.42;;
38208;SDS011;24016;52.102;11.584;2022-08-21T12:04:34;5.90;;;1.95;;
38208;SDS011;24016;52.102;11.584;2022-08-21T12:07:11;5.13;;;1.70;;
38208;SDS011;24016;52.102;11.584;2022-08-21T12:09:39;3.83;;;1.80;;
38208;SDS011;24016;52.102;11.584;2022-08-21T12:12:09;6.57;;;2.00;;
38208;SDS011;24016;52.102;11.584;2022-08-21T12:14:48;3.40;;;1.60;;
38208;SDS011;24016;52.102;11.584;2022-08-21T12:17:24;3.13;;;1.65;;
38208;SDS011;24016;52.102;11.584;2022-08-21T12:20:21;7.05;;;2.00;;
38208;SDS011;24016;52.102;11.584;2022-08-21T12:28:08;4.57;;;1.80;;
38208;SDS011;24016;52.102;11.584;2022-08-21T12:30:37;5.45;;;1.80;;
38208;SDS011;24016;52.102;11.584;2022-08-21T12:33:17;4.97;;;1.58;;
38208;SDS011;24016;52.102;11.584;2022-08-21T12:35:43;4.88;;;1.75;;
38208;SDS011;24016;52.102;11.584;2022-08-21T12:39:12;6.07;;;1.92;;
38208;SDS011;24016;52.102;11.584;2022-08-21T12:41:15;5.68;;;1.90;;
38208;SDS011;24016;52.102;11.584;2022-08-21T12:43:52;4.50;;;1.80;;
38208;SDS011;24016;52.102;11.584;2022-08-21T12:46:26;5.45;;;1.90;;
38208;SDS011;24016;52.102;11.584;2022-08-21T12:48:58;5.07;;;1.98;;
38208;SDS011;24016;52.102;11.584;2022-08-21T12:52:16;4.75;;;1.58;;
38208;SDS011;24016;52.102;11.584;2022-08-21T12:54:23;5.68;;;1.85;;
38208;SDS011;24016;52.102;11.584;2022-08-21T12:56:58;4.03;;;2.00;;
38208;SDS011;24016;52.102;11.584;2022-08-21T12:59:29;3.33;;;1.65;;
38208;SDS011;24016;52.102;11.584;2022-08-21T13:01:55;4.90;;;1.80;;
38208;SDS011;24016;52.102;11.584;2022-08-21T13:04:26;5.47;;;1.70;;
38208;SDS011;24016;52.102;11.584;2022-08-21T13:07:00;4.00;;;2.00;;
38208;SDS011;24016;52.102;11.584;2022-08-21T13:09:30;5.32;;;1.75;;
38208;SDS011;24016;52.102;11.584;2022-08-21T13:11:56;4.05;;;1.75;;
38208;SDS011;24016;52.102;11.584;2022-08-21T13:14:25;3.63;;;1.70;;
38208;SDS011;24016;52.102;11.584;2022-08-21T13:17:02;5.43;;;1.90;;
38208;SDS011;24016;52.102;11.584;2022-08-21T13:19:30;5.22;;;1.80;;
38208;SDS011;24016;52.102;11.584;2022-08-21T13:21:56;4.32;;;1.83;;
38208;SDS011;24016;52.102;11.584;2022-08-21T13:24:24;4.50;;;1.83;;
38208;SDS011;24016;52.102;11.584;2022-08-21T13:26:51;7.28;;;2.13;;
38208;SDS011;24016;52.102;11.584;2022-08-21T13:29:19;5.68;;;2.20;;
38208;SDS011;24016;52.102;11.584;2022-08-21T13:31:51;5.65;;;1.98;;
38208;SDS011;24016;52.102;11.584;2022-08-21T13:34:23;3.85;;;1.70;;
38208;SDS011;24016;52.102;11.584;2022-08-21T13:36:51;5.30;;;1.70;;
38208;SDS011;24016;52.102;11.584;2022-08-21T13:39:20;5.50;;;1.85;;
38208;SDS011;24016;52.102;11.584;2022-08-21T13:41:48;4.65;;;2.20;;
38208;SDS011;24016;52.102;11.584;2022-08-21T13:44:19;4.57;;;1.80;;
38208;SDS011;24016;52.102;11.584;2022-08-21T13:46:46;4.03;;;1.70;;
38208;SDS011;24016;52.102;11.584;2022-08-21T13:49:15;5.13;;;1.80;;
38208;SDS011;24016;52.102;11.584;2022-08-21T13:51:43;6.20;;;1.98;;
38208;SDS011;24016;52.102;11.584;2022-08-21T13:54:53;4.75;;;2.00;;
38208;SDS011;24016;52.102;11.584;2022-08-21T13:57:02;5.75;;;2.05;;
38208;SDS011;24016;52.102;11.584;2022-08-21T13:59:29;6.50;;;2.17;;
38208;SDS011;24016;52.102;11.584;2022-08-21T14:02:01;3.88;;;1.65;;
38208;SDS011;24016;52.102;11.584;2022-08-21T14:04:39;5.20;;;2.15;;
38208;SDS011;24016;52.102;11.584;2022-08-21T14:07:17;7.45;;;2.00;;
38208;SDS011;24016;52.102;11.584;2022-08-21T14:10:18;4.68;;;1.77;;
38208;SDS011;24016;52.102;11.584;2022-08-21T14:12:52;3.92;;;1.70;;
38208;SDS011;24016;52.102;11.584;2022-08-21T14:15:25;5.20;;;1.90;;
38208;SDS011;24016;52.102;11.584;2022-08-21T14:17:53;5.13;;;2.00;;
38208;SDS011;24016;52.102;11.584;2022-08-21T14:20:32;5.43;;;2.10;;
38208;SDS011;24016;52.102;11.584;2022-08-21T14:22:59;5.00;;;1.65;;
38208;SDS011;24016;52.102;11.584;2022-08-21T14:27:54;4.03;;;1.88;;
38208;SDS011;24016;52.102;11.584;2022-08-21T14:30:28;5.55;;;1.80;;
38208;SDS011;24016;52.102;11.584;2022-08-21T14:32:58;3.13;;;1.92;;
38208;SDS011;24016;52.102;11.584;2022-08-21T14:35:26;3.33;;;1.63;;
38208;SDS011;24016;52.102;11.584;2022-08-21T14:37:52;3.78;;;1.58;;
38208;SDS011;24016;52.102;11.584;2022-08-21T14:40:19;5.70;;;1.95;;
38208;SDS011;24016;52.102;11.584;2022-08-21T14:42:46;4.07;;;1.95;;
38208;SDS011;24016;52.102;11.584;2022-08-21T14:45:18;3.75;;;1.85;;
38208;SDS011;24016;52.102;11.584;2022-08-21T14:47:50;4.40;;;1.92;;
38208;SDS011;24016;52.102;11.584;2022-08-21T14:50:16;4.82;;;1.80;;
38208;SDS011;24016;52.102;11.584;2022-08-21T14:52:42;8.48;;;2.30;;
38208;SDS011;24016;52.102;11.584;2022-08-21T14:55:10;6.22;;;2.13;;
38208;SDS011;24016;52.102;11.584;2022-08-21T14:57:42;4.28;;;1.85;;
38208;SDS011;24016;52.102;11.584;2022-08-21T15:00:12;6.55;;;1.90;;
38208;SDS011;24016;52.102;11.584;2022-08-21T15:02:39;6.22;;;2.28;;
38208;SDS011;24016;52.102;11.584;2022-08-21T15:05:05;6.97;;;1.80;;
38208;SDS011;24016;52.102;11.584;2022-08-21T15:07:31;3.97;;;1.92;;
38208;SDS011;24016;52.102;11.584;2022-08-21T15:09:56;6.50;;;1.92;;
38208;SDS011;24016;52.102;11.584;2022-08-21T15:12:22;4.45;;;1.80;;
38208;SDS011;24016;52.102;11.584;2022-08-21T15:14:49;4.72;;;1.90;;
38208;SDS011;24016;52.102;11.584;2022-08-21T15:17:15;4.30;;;1.90;;
38208;SDS011;24016;52.102;11.584;2022-08-21T15:19:41;7.50;;;2.20;;
38208;SDS011;24016;52.102;11.584;2022-08-21T15:22:06;5.45;;;1.90;;
38208;SDS011;24016;52.102;11.584;2022-08-21T15:24:32;4.63;;;2.13;;
38208;SDS011;24016;52.102;11.584;2022-08-21T15:26:59;4.32;;;1.88;;
38208;SDS011;24016;52.102;11.584;2022-08-21T15:29:26;4.13;;;1.80;;
38208;SDS011;24016;52.102;11.584;2022-08-21T15:31:54;6.13;;;1.98;;
38208;SDS011;24016;52.102;11.584;2022-08-21T15:34:22;4.38;;;1.92;;
38208;SDS011;24016;52.102;11.584;2022-08-21T15:36:49;6.85;;;2.00;;
38208;SDS011;24016;52.102;11.584;2022-08-21T15:39:15;4.45;;;1.75;;
38208;SDS011;24016;52.102;11.584;2022-08-21T15:41:42;7.25;;;2.30;;
38208;SDS011;24016;52.102;11.584;2022-08-21T15:44:09;5.35;;;2.20;;
38208;SDS011;24016;52.102;11.584;2022-08-21T15:46:37;4.40;;;2.00;;
38208;SDS011;24016;52.102;11.584;2022-08-21T15:49:03;4.50;;;2.13;;
38208;SDS011;24016;52.102;11.584;2022-08-21T15:51:29;5.10;;;2.28;;
38208;SDS011;24016;52.102;11.584;2022-08-21T15:53:55;4.15;;;2.08;;